METAR Data
IDs: Format: Raw Decoded Include TAF

Data at: 1326 UTC 21 Oct 2018

KLUD 211315Z AUTO 00000KT 10SM CLR 11/06 A3035 RMK AO2 T01090063
KLUD 211255Z AUTO 00000KT 10SM CLR 11/06 A3035 RMK AO2 T01070062
KLUD 211235Z AUTO 00000KT 10SM CLR 11/06 A3035 RMK AO2 T01100063
KLUD 211215Z AUTO 00000KT 10SM CLR 11/06 A3035 RMK AO2 T01120062
KLUD 211155Z AUTO 00000KT 10SM CLR 11/06 A3035 RMK AO2 T01120064 10142 20111
KLUD 211135Z AUTO 00000KT 10SM CLR 11/06 A3034 RMK AO2 T01130064
KLUD 211115Z AUTO 00000KT 10SM CLR 12/07 A3034 RMK AO2 T01180065
KLUD 211055Z AUTO 00000KT 10SM CLR 12/07 A3034 RMK AO2 T01150066
KLUD 211035Z AUTO 00000KT 10SM CLR 12/07 A3033 RMK AO2 T01170065
KLUD 211015Z AUTO 00000KT 10SM CLR 13/06 A3033 RMK AO2 T01250063
KLUD 210955Z AUTO 00000KT 10SM CLR 12/07 A3033 RMK AO2 T01230065
KLUD 210935Z AUTO 00000KT 10SM CLR 13/07 A3033 RMK AO2 T01250065
KLUD 210915Z AUTO 00000KT 10SM CLR 13/06 A3033 RMK AO2 T01270063
KLUD 210855Z AUTO 00000KT 10SM CLR 13/07 A3034 RMK AO2 T01250066
KLUD 210835Z AUTO 00000KT 10SM CLR 13/07 A3034 RMK AO2 T01260067
KLUD 210815Z AUTO 00000KT 10SM CLR 13/07 A3034 RMK AO2 T01250065
KLUD 210755Z AUTO 00000KT 10SM CLR 13/07 A3034 RMK AO2 T01250066
KLUD 210735Z AUTO 00000KT 10SM CLR 12/08 A3034 RMK AO2 T01160075
KLUD 210715Z AUTO 00000KT 10SM CLR 13/07 A3034 RMK AO2 T01300065
KLUD 210655Z AUTO 00000KT 10SM CLR 14/07 A3034 RMK AO2 T01370065
KLUD 210635Z AUTO 00000KT 10SM CLR 14/07 A3034 RMK AO2 T01400066
KLUD 210615Z AUTO 00000KT 10SM CLR 14/07 A3034 RMK AO2 T01410066
KLUD 210555Z AUTO 00000KT 10SM CLR 14/07 A3034 RMK AO2 T01380070 10173 20132 402170119
KLUD 210535Z AUTO 00000KT 10SM CLR 14/07 A3034 RMK AO2 T01360072
KLUD 210515Z AUTO 00000KT 10SM CLR 13/08 A3034 RMK AO2 T01340075
KLUD 210455Z AUTO 00000KT 7SM CLR 14/08 A3034 RMK AO2 T01350075
KLUD 210435Z AUTO 00000KT 10SM CLR 14/08 A3035 RMK AO2 T01360075
KLUD 210415Z AUTO 00000KT 10SM CLR 14/08 A3034 RMK AO2 T01360078
KLUD 210355Z AUTO 00000KT 7SM CLR 14/08 A3034 RMK AO2 T01350080
KLUD 210335Z AUTO 00000KT 10SM CLR 14/08 A3034 RMK AO2 T01370082
KLUD 210315Z AUTO 00000KT 10SM CLR 14/09 A3034 RMK AO2 T01400085
KLUD 210255Z AUTO 00000KT 10SM CLR 14/09 A3033 RMK AO2 T01400087
KLUD 210235Z AUTO 00000KT 7SM CLR 14/09 A3033 RMK AO2 T01440088
KLUD 210215Z AUTO 00000KT 10SM CLR 15/09 A3032 RMK AO2 T01470086
KLUD 210155Z AUTO 00000KT 10SM CLR 15/09 A3032 RMK AO2 T01460090
KLUD 210135Z AUTO 00000KT 10SM CLR 15/09 A3031 RMK AO2 T01470092
KLUD 210115Z AUTO 00000KT 10SM CLR 15/09 A3031 RMK AO2 T01530093
KLUD 210055Z AUTO 00000KT 10SM CLR 16/10 A3030 RMK AO2 T01570095
KLUD 210035Z AUTO 00000KT 10SM CLR 16/10 A3030 RMK AO2 T01630100
KLUD 210015Z AUTO 00000KT 10SM CLR 17/10 A3028 RMK AO2 T01700098
KLUD 202355Z AUTO 00000KT 10SM CLR 17/10 A3028 RMK AO2 T01720097 10217 20172
KLUD 202335Z AUTO 00000KT 10SM CLR 18/10 A3028 RMK AO2 T01830100
KLUD 202315Z AUTO 00000KT 10SM CLR 19/10 A3027 RMK AO2 T01920096
KLUD 202255Z AUTO 00000KT 7SM CLR 20/09 A3027 RMK AO2 T01950093
KLUD 202235Z AUTO 02004KT 10SM CLR 20/09 A3026 RMK AO2 T02000090
KLUD 202215Z AUTO 01007KT 10SM CLR 20/08 A3026 RMK AO2 T02010080
KLUD 202155Z AUTO 03008KT 10SM CLR 20/08 A3026 RMK AO2 T02040076
KLUD 202135Z AUTO 01009G14KT 7SM CLR 21/07 A3026 RMK AO2 T02060067
KLUD 202115Z AUTO 01008G15KT 10SM CLR 21/06 A3025 RMK AO2 T02090064
KLUD 202055Z AUTO 01007KT 10SM CLR 22/08 A3025 RMK AO2 T02150083
KLUD 202035Z AUTO 03010G14KT 10SM CLR 22/08 A3025 RMK AO2 T02150081
KLUD 202015Z AUTO 01004KT 10SM CLR 21/10 A3025 RMK AO2 T02130095
KLUD 201955Z AUTO 02011G17KT 10SM CLR 21/08 A3025 RMK AO2 T02130076
KLUD 201935Z AUTO 01006KT 7SM CLR 21/09 A3025 RMK AO2 T02100087
KLUD 201915Z AUTO 36006G15KT 10SM CLR 21/10 A3025 RMK AO2 T02090095
KLUD 201855Z AUTO 02005KT 10SM CLR 21/10 A3026 RMK AO2 T02110102
KLUD 201835Z AUTO 01009KT 10SM CLR 21/11 A3026 RMK AO2 T02050106
KLUD 201815Z AUTO 01005KT 10SM CLR 20/12 A3027 RMK AO2 T02000123
KLUD 201755Z AUTO 04003KT 10SM CLR 19/12 A3028 RMK AO2 T01940123 10194 20119
KLUD 201735Z AUTO 03006KT 7SM CLR 18/12 A3028 RMK AO2 T01780122
KLUD 201715Z AUTO 03006KT 10SM SCT010 18/13 A3028 RMK AO2 T01760134
KLUD 201655Z AUTO 03004KT 10SM BKN008 17/14 A3029 RMK AO2 T01660136
KLUD 201635Z AUTO 05007G14KT 10SM BKN011 16/14 A3029 RMK AO2 T01620138
KLUD 201615Z AUTO 05013G17KT 10SM BKN009 18/14 A3028 RMK AO2 T01780144
KLUD 201555Z AUTO 03008KT 10SM BKN009 16/15 A3028 RMK AO2 T01630147
KLUD 201535Z AUTO 02007KT 10SM BKN009 16/15 A3028 RMK AO2 T01580145
KLUD 201515Z AUTO 02007G15KT 10SM SCT007 16/14 A3027 RMK AO2 T01610144
KLUD 201455Z AUTO 36005KT 10SM CLR 15/15 A3026 RMK AO2 T01540146
KLUD 201435Z AUTO 36007KT 10SM CLR 15/15 A3025 RMK AO2 T01490145
KLUD 201415Z AUTO 00000KT 10SM CLR 15/14 A3025 RMK AO2 T01450141
KLUD 201355Z AUTO 00000KT 7SM SCT001 14/13 A3024 RMK AO2 T01360133
KLUD 201335Z AUTO 00000KT 1SM BR OVC001 12/12 A3022 RMK AO2 T01200116
KLUD 201315Z AUTO 00000KT 1 3/4SM BR SCT001 12/12 A3022 RMK AO2 T01210119
KLUD 201255Z AUTO 00000KT 2 1/2SM BR CLR 12/12 A3021 RMK AO2 T01200117
KLUD 201235Z AUTO 00000KT 2 1/2SM BR CLR 12/12 A3021 RMK AO2 T01200117
KLUD 201215Z AUTO 00000KT 3/4SM BR VV005 12/12 A3021 RMK AO2 T01200117
KLUD 201155Z AUTO 00000KT 2 1/2SM BR CLR 12/12 A3020 RMK AO2 P0001 60001 70079 T01220120 10141 20121
KLUD 201135Z AUTO 00000KT 3SM BR CLR 12/12 A3020 RMK AO2 P0001 T01220120
KLUD 201115Z AUTO 00000KT 3SM BR CLR 12/12 A3019 RMK AO2 P0001 T01230120
KLUD 201055Z AUTO 00000KT 2 1/2SM BR CLR 13/12 A3019 RMK AO2 T01250121
KLUD 201035Z AUTO 00000KT 4SM BR CLR 13/12 A3018 RMK AO2 T01260123
KLUD 201015Z AUTO 00000KT 1 1/4SM BR BKN001 13/12 A3018 RMK AO2 T01260123
KLUD 200955Z AUTO 00000KT 1/4SM FG OVC001 13/12 A3018 RMK AO2 T01250122
KLUD 200935Z AUTO 00000KT M1/4SM FG OVC001 13/13 A3017 RMK AO2 T01270125
KLUD 200915Z AUTO 00000KT 3/4SM BR SCT001 13/13 A3017 RMK AO2 T01300127
KLUD 200855Z AUTO 00000KT 4SM BR CLR 13/13 A3017 RMK AO2 T01340131
KLUD 200835Z AUTO 00000KT 7SM CLR 14/13 A3017 RMK AO2 T01350132
KLUD 200815Z AUTO 00000KT 10SM CLR 14/13 A3017 RMK AO2 T01350132
KLUD 200755Z AUTO 00000KT 7SM SCT006 14/13 A3017 RMK AO2 T01350132
KLUD 200735Z AUTO 00000KT 4SM BR SCT006 14/13 A3017 RMK AO2 T01350131
KLUD 200715Z AUTO 00000KT 1/4SM FG BKN001 OVC008 13/13 A3017 RMK AO2 T01310129
KLUD 200655Z AUTO 00000KT M1/4SM FG OVC001 13/13 A3017 RMK AO2 T01340131
KLUD 200635Z AUTO 00000KT M1/4SM FG OVC001 14/13 A3017 RMK AO2 T01360133
KLUD 200615Z AUTO 00000KT 1/4SM FG OVC001 14/14 A3017 RMK AO2 T01410137
KLUD 200555Z AUTO 00000KT 1/2SM FG BKN008 14/14 A3017 RMK AO2 T01410138 10147 20140 401480129
KLUD 200535Z AUTO 00000KT 1 1/2SM BR VV007 14/14 A3017 RMK AO2 T01420139
KLUD 200515Z AUTO 00000KT 1 1/2SM BR VV007 14/14 A3016 RMK AO2 T01400136
KLUD 200455Z AUTO 00000KT 2SM BR CLR 14/14 A3016 RMK AO2 T01410137
KLUD 200435Z AUTO 00000KT 7SM CLR 15/14 A3016 RMK AO2 T01450140
KLUD 200415Z AUTO 00000KT 7SM CLR 14/14 A3017 RMK AO2 T01430140
KLUD 200355Z AUTO 00000KT 4SM BR CLR 14/14 A3017 RMK AO2 T01430140
KLUD 200335Z AUTO 00000KT 3SM BR SCT001 14/14 A3017 RMK AO2 T01440140
KLUD 200315Z AUTO 00000KT 1 3/4SM BR OVC001 15/14 A3017 RMK AO2 T01450141
KLUD 200255Z AUTO 00000KT 1/2SM FG OVC001 15/14 A3017 RMK AO2 T01450140
KLUD 200235Z AUTO 00000KT 1SM BR BKN001 BKN008 15/14 A3016 RMK AO2 T01450141
KLUD 200215Z AUTO 00000KT 2 1/2SM BR SCT010 SCT110 15/14 A3016 RMK AO2 T01460142
KLUD 200155Z AUTO 00000KT 1 1/2SM BR BKN010 BKN120 15/14 A3016 RMK AO2 T01460142
KLUD 200135Z AUTO 00000KT 4SM BR SCT095 SCT120 15/14 A3015 RMK AO2 T01470143